createdAt,value
2019-05-18T00:02:24.843Z,21.30
2019-05-18T00:04:51.943Z,21.30
2019-05-18T00:07:19.036Z,21.30
2019-05-18T00:09:46.552Z,21.30
2019-05-18T00:12:13.642Z,21.30
2019-05-18T00:14:40.824Z,21.30
2019-05-18T00:17:25.443Z,21.20
2019-05-18T00:19:49.106Z,21.20
2019-05-18T00:22:16.399Z,21.30
2019-05-18T00:24:45.369Z,21.30
2019-05-18T00:27:12.603Z,21.30
2019-05-18T00:29:51.828Z,21.30
2019-05-18T00:32:14.423Z,21.30
2019-05-18T00:34:41.582Z,21.20
2019-05-18T00:37:21.015Z,21.30
2019-05-18T00:39:48.109Z,21.20
2019-05-18T00:42:15.172Z,21.20
2019-05-18T00:44:42.256Z,21.20
2019-05-18T00:47:09.705Z,21.20
2019-05-18T00:49:36.763Z,21.20
2019-05-18T00:52:04.087Z,21.20
2019-05-18T00:54:31.224Z,21.20
2019-05-18T00:56:58.338Z,21.20
2019-05-18T00:59:25.592Z,21.20
2019-05-18T01:01:57.128Z,21.20
2019-05-18T01:04:24.236Z,21.20
2019-05-18T01:06:51.326Z,21.20
2019-05-18T01:09:18.591Z,21.20
2019-05-18T01:11:45.690Z,21.20
2019-05-18T01:14:13.041Z,21.20
2019-05-18T01:16:40.159Z,21.20
2019-05-18T01:19:07.267Z,21.20
2019-05-18T01:21:34.343Z,21.20
2019-05-18T01:24:01.443Z,21.20
2019-05-18T01:26:28.563Z,21.20
2019-05-18T01:28:55.677Z,21.20
2019-05-18T01:31:23.004Z,21.20
2019-05-18T01:33:50.070Z,21.20
2019-05-18T01:36:17.147Z,21.20
2019-05-18T01:38:44.364Z,21.20
2019-05-18T01:41:11.532Z,21.20
2019-05-18T01:43:38.859Z,21.20
2019-05-18T01:46:05.919Z,21.20
2019-05-18T01:48:33.093Z,21.20
2019-05-18T01:51:00.185Z,21.20
2019-05-18T01:53:27.450Z,21.10
2019-05-18T01:55:54.519Z,21.10
2019-05-18T01:58:21.630Z,21.20
2019-05-18T02:00:52.601Z,21.10
2019-05-18T02:03:19.396Z,21.10
2019-05-18T02:05:46.536Z,21.10
2019-05-18T02:08:13.664Z,21.10
2019-05-18T02:10:41.112Z,21.10
2019-05-18T02:13:08.257Z,21.10
2019-05-18T02:15:35.357Z,21.10
2019-05-18T02:18:04.212Z,21.10
2019-05-18T02:20:31.452Z,21.10
2019-05-18T02:22:58.596Z,21.10
2019-05-18T02:25:25.693Z,21.10
2019-05-18T02:27:52.801Z,21.10
2019-05-18T02:30:21.078Z,21.10
2019-05-18T02:32:48.368Z,21.10
2019-05-18T02:35:15.463Z,21.20
2019-05-18T02:37:42.582Z,21.20
2019-05-18T02:40:09.647Z,21.20
2019-05-18T02:42:36.802Z,21.20
2019-05-18T02:45:03.948Z,21.20
2019-05-18T02:47:31.037Z,21.30
2019-05-18T02:49:58.366Z,21.30
2019-05-18T02:52:25.441Z,21.30
2019-05-18T02:54:53.103Z,21.30
2019-05-18T02:57:20.289Z,21.30
2019-05-18T02:59:47.603Z,21.30
2019-05-18T03:02:15.233Z,21.40
2019-05-18T03:04:42.368Z,21.40
2019-05-18T03:07:09.637Z,21.40
2019-05-18T03:09:36.709Z,21.40
2019-05-18T03:12:03.857Z,21.40
2019-05-18T03:14:31.532Z,21.40
2019-05-18T03:16:58.758Z,21.40
2019-05-18T03:19:25.857Z,21.40
2019-05-18T03:21:55.497Z,21.40
2019-05-18T03:24:21.852Z,21.40
2019-05-18T03:26:48.919Z,21.40
2019-05-18T03:29:16.046Z,21.50
2019-05-18T03:31:43.571Z,21.40
2019-05-18T03:34:10.717Z,21.50
2019-05-18T03:36:37.846Z,21.50
2019-05-18T03:39:04.912Z,21.50
2019-05-18T03:41:32.127Z,21.50
2019-05-18T03:43:59.281Z,21.50
2019-05-18T03:46:26.380Z,21.50
2019-05-18T03:48:53.710Z,21.50
2019-05-18T03:51:20.821Z,21.50
2019-05-18T03:53:47.975Z,21.50
2019-05-18T03:56:15.127Z,21.50
2019-05-18T03:58:42.180Z,21.50
2019-05-18T04:01:09.291Z,21.50
2019-05-18T04:03:38.105Z,21.50
2019-05-18T04:06:05.269Z,21.50
2019-05-18T04:08:32.367Z,21.50
2019-05-18T04:10:59.530Z,21.50
2019-05-18T04:13:26.602Z,21.50
2019-05-18T04:15:53.930Z,21.50
2019-05-18T04:18:21.038Z,21.50
2019-05-18T04:20:48.338Z,21.50
2019-05-18T04:23:15.396Z,21.50
2019-05-18T04:25:43.919Z,21.50
2019-05-18T04:28:11.451Z,21.50
2019-05-18T04:30:38.545Z,21.50
2019-05-18T04:33:05.832Z,21.50
2019-05-18T04:35:32.912Z,21.50
2019-05-18T04:38:05.130Z,21.50
2019-05-18T04:40:32.272Z,21.50
2019-05-18T04:42:59.564Z,21.50
2019-05-18T04:45:26.640Z,21.60
2019-05-18T04:47:53.720Z,21.60
2019-05-18T04:50:20.880Z,21.50
2019-05-18T04:52:47.945Z,21.60
2019-05-18T04:55:15.062Z,21.50
2019-05-18T04:57:42.157Z,21.60
2019-05-18T05:00:09.394Z,21.60
2019-05-18T05:02:36.523Z,21.60
2019-05-18T05:05:03.649Z,21.60
2019-05-18T05:07:30.758Z,21.60
2019-05-18T05:09:57.817Z,21.60
2019-05-18T05:12:25.148Z,21.60
2019-05-18T05:14:52.209Z,21.60
2019-05-18T05:17:19.274Z,21.50
2019-05-18T05:19:46.379Z,21.50
2019-05-18T05:22:13.447Z,21.50
2019-05-18T05:24:40.513Z,21.50
2019-05-18T05:27:07.605Z,21.50
2019-05-18T05:29:34.665Z,21.50
2019-05-18T05:32:01.977Z,21.50
2019-05-18T05:34:29.262Z,21.60
2019-05-18T05:36:56.327Z,21.60
2019-05-18T05:39:23.424Z,21.60
2019-05-18T05:41:50.496Z,21.70
2019-05-18T05:44:17.783Z,21.60
2019-05-18T05:46:44.849Z,21.70
2019-05-18T05:49:12.000Z,21.70
2019-05-18T05:51:39.064Z,21.80
2019-05-18T05:54:06.167Z,21.70
2019-05-18T05:56:33.224Z,21.70
2019-05-18T05:59:00.333Z,21.80
2019-05-18T06:01:27.456Z,21.80
2019-05-18T06:03:54.523Z,21.70
2019-05-18T06:06:23.178Z,21.70
2019-05-18T06:08:50.382Z,21.80
2019-05-18T06:11:17.557Z,21.80
2019-05-18T06:13:44.618Z,21.80
2019-05-18T06:16:11.716Z,21.80
2019-05-18T06:18:38.812Z,21.80
2019-05-18T06:21:05.961Z,21.90
2019-05-18T06:23:33.044Z,21.90
2019-05-18T06:26:00.129Z,21.80
2019-05-18T06:28:27.253Z,21.90
2019-05-18T06:30:54.565Z,21.90
2019-05-18T06:33:21.657Z,21.90
2019-05-18T06:35:48.785Z,21.90
2019-05-18T06:38:15.863Z,21.90
2019-05-18T06:40:43.214Z,21.90
2019-05-18T06:43:10.362Z,21.90
2019-05-18T06:45:37.502Z,21.90
2019-05-18T06:48:04.726Z,21.90
2019-05-18T06:50:31.853Z,21.90
2019-05-18T06:52:59.031Z,21.90
2019-05-18T06:55:26.115Z,21.90
2019-05-18T06:57:56.200Z,21.90
2019-05-18T07:00:22.022Z,21.90
2019-05-18T07:02:49.242Z,22.00
2019-05-18T07:05:16.608Z,22.00
2019-05-18T07:07:43.755Z,22.00
2019-05-18T07:10:12.032Z,22.00
2019-05-18T07:12:39.107Z,22.00
2019-05-18T07:15:08.348Z,22.00
2019-05-18T07:17:35.452Z,22.00
2019-05-18T07:20:02.527Z,22.00
2019-05-18T07:22:29.726Z,22.00
2019-05-18T07:24:56.790Z,22.00
2019-05-18T07:27:24.034Z,21.90
2019-05-18T07:29:51.098Z,21.90
2019-05-18T07:32:18.434Z,22.00
2019-05-18T07:34:45.580Z,22.00
2019-05-18T07:37:12.670Z,22.00
2019-05-18T07:39:39.731Z,22.00
2019-05-18T07:42:06.938Z,22.00
2019-05-18T07:44:34.019Z,22.00
2019-05-18T07:47:01.222Z,22.00
2019-05-18T07:49:28.293Z,22.00
2019-05-18T07:51:55.532Z,22.00
2019-05-18T07:54:22.595Z,22.00
2019-05-18T07:56:49.697Z,22.00
2019-05-18T07:59:19.748Z,22.00
2019-05-18T08:01:45.764Z,22.00
2019-05-18T08:04:12.837Z,22.00
2019-05-18T08:06:39.931Z,22.00
2019-05-18T08:09:07.019Z,22.10
2019-05-18T08:11:34.171Z,22.10
2019-05-18T08:14:01.233Z,22.10
2019-05-18T08:16:28.308Z,22.10
2019-05-18T08:18:58.123Z,22.10
2019-05-18T08:21:24.149Z,22.00
2019-05-18T08:23:51.450Z,22.00
2019-05-18T08:26:18.548Z,22.10
2019-05-18T08:28:45.615Z,22.10
2019-05-18T08:31:12.791Z,22.10
2019-05-18T08:33:39.849Z,22.10
2019-05-18T08:36:06.941Z,22.10
2019-05-18T08:38:34.029Z,22.10
2019-05-18T08:41:01.094Z,22.10
2019-05-18T08:43:28.250Z,22.10
2019-05-18T08:45:55.376Z,22.10
2019-05-18T08:48:22.469Z,22.10
2019-05-18T08:50:49.767Z,22.10
2019-05-18T08:53:17.053Z,22.10
2019-05-18T08:55:44.110Z,22.10
2019-05-18T08:58:11.207Z,22.10
2019-05-18T09:00:38.379Z,22.10
2019-05-18T09:03:05.448Z,22.10
2019-05-18T09:05:32.565Z,22.10
2019-05-18T09:07:59.625Z,22.10
2019-05-18T09:10:26.786Z,22.10
2019-05-18T09:12:53.882Z,22.10
2019-05-18T09:15:20.977Z,22.10
2019-05-18T09:17:48.050Z,22.20
2019-05-18T09:20:15.124Z,22.20
2019-05-18T09:22:42.251Z,22.10
2019-05-18T09:25:09.332Z,22.10
2019-05-18T09:27:36.420Z,22.20
2019-05-18T09:30:03.543Z,22.20
2019-05-18T09:32:30.694Z,22.10
2019-05-18T09:34:57.765Z,22.10
2019-05-18T09:37:24.853Z,22.10
2019-05-18T09:39:51.952Z,22.10
2019-05-18T09:42:19.087Z,22.10
2019-05-18T09:44:46.153Z,22.10
2019-05-18T09:47:13.767Z,22.10
2019-05-18T09:49:40.924Z,22.10
2019-05-18T09:52:08.034Z,22.10
2019-05-18T09:54:35.121Z,22.10
2019-05-18T09:57:02.227Z,22.10
2019-05-18T09:59:29.287Z,22.10
2019-05-18T10:01:56.433Z,22.10
2019-05-18T10:04:23.519Z,22.10
2019-05-18T10:06:50.597Z,22.10
2019-05-18T10:09:17.763Z,22.10
2019-05-18T10:11:44.834Z,22.10
2019-05-18T10:14:11.906Z,22.10
2019-05-18T10:16:39.149Z,22.10
2019-05-18T10:19:06.224Z,22.10
2019-05-18T10:21:33.458Z,22.10
2019-05-18T10:24:00.606Z,22.10
2019-05-18T10:26:27.687Z,22.00
2019-05-18T10:28:54.738Z,22.00
2019-05-18T10:31:21.837Z,22.00
2019-05-18T10:33:48.916Z,22.00
2019-05-18T10:36:16.023Z,22.00
2019-05-18T10:38:43.097Z,22.00
2019-05-18T10:41:10.185Z,22.00
2019-05-18T10:43:37.279Z,22.00
2019-05-18T10:46:04.378Z,22.00
2019-05-18T10:48:31.443Z,22.00
2019-05-18T10:50:58.501Z,22.00
2019-05-18T10:53:28.918Z,21.90
2019-05-18T10:55:54.417Z,21.90
2019-05-18T10:58:21.517Z,21.90
2019-05-18T11:00:48.584Z,21.90
2019-05-18T11:03:15.691Z,21.90
2019-05-18T11:05:42.783Z,21.90
2019-05-18T11:08:09.851Z,21.90
2019-05-18T11:10:36.937Z,21.90
2019-05-18T11:13:04.001Z,21.90
2019-05-18T11:15:31.106Z,21.90
2019-05-18T11:17:58.168Z,21.90
2019-05-18T11:20:25.450Z,21.90
2019-05-18T11:22:52.507Z,21.90
2019-05-18T11:25:19.698Z,21.90
2019-05-18T11:27:46.974Z,21.90
2019-05-18T11:30:14.047Z,21.90
2019-05-18T11:32:41.146Z,21.90
2019-05-18T11:35:08.285Z,21.90
2019-05-18T11:37:35.393Z,21.90
2019-05-18T11:40:02.450Z,21.90
2019-05-18T11:42:29.678Z,21.90
2019-05-18T11:44:56.756Z,21.90
2019-05-18T11:47:23.847Z,22.00
2019-05-18T11:49:50.961Z,22.00
2019-05-18T11:52:21.219Z,22.00
2019-05-18T11:54:48.320Z,22.00
2019-05-18T11:57:15.422Z,22.00
2019-05-18T11:59:42.545Z,22.00
2019-05-18T12:02:11.448Z,22.00
2019-05-18T12:04:38.595Z,22.00
2019-05-18T12:07:05.685Z,22.00
2019-05-18T12:09:33.235Z,22.00
2019-05-18T12:12:00.523Z,22.00
2019-05-18T12:14:27.667Z,22.00
2019-05-18T12:16:54.744Z,22.00
2019-05-18T12:19:21.829Z,22.00
2019-05-18T12:21:48.890Z,22.00
2019-05-18T12:24:16.231Z,22.00
2019-05-18T12:26:43.544Z,22.00
2019-05-18T12:29:10.725Z,22.00
2019-05-18T12:31:37.814Z,22.00
2019-05-18T12:34:04.880Z,22.00
2019-05-18T12:36:32.016Z,22.00
2019-05-18T12:38:59.279Z,22.00
2019-05-18T12:41:26.622Z,22.00
2019-05-18T12:43:53.761Z,22.00
2019-05-18T12:46:20.826Z,22.00
2019-05-18T12:48:48.167Z,22.00
2019-05-18T12:51:15.469Z,22.00
2019-05-18T12:53:42.582Z,22.00
2019-05-18T12:56:09.677Z,22.00
2019-05-18T12:58:37.714Z,22.10
2019-05-18T13:01:05.059Z,22.10
2019-05-18T13:03:32.187Z,22.10
2019-05-18T13:05:59.297Z,22.00
2019-05-18T13:08:26.387Z,22.10
2019-05-18T13:10:53.640Z,22.00
2019-05-18T13:13:20.823Z,22.00
2019-05-18T13:15:47.961Z,22.00
2019-05-18T13:18:15.070Z,22.00
2019-05-18T13:20:42.136Z,22.00
2019-05-18T13:23:09.301Z,22.00
2019-05-18T13:25:36.421Z,22.00
2019-05-18T13:28:03.607Z,22.00
2019-05-18T13:30:30.741Z,22.00
2019-05-18T13:32:57.879Z,22.00
2019-05-18T13:35:24.993Z,22.00
2019-05-18T13:37:52.074Z,22.00
2019-05-18T13:40:19.231Z,22.00
2019-05-18T13:42:46.302Z,22.00
2019-05-18T13:45:13.369Z,22.00
2019-05-18T13:47:40.475Z,21.90
2019-05-18T13:50:07.570Z,22.00
2019-05-18T13:52:34.881Z,22.00
2019-05-18T13:55:04.819Z,22.00
2019-05-18T13:57:30.729Z,22.00
2019-05-18T13:59:57.829Z,21.90
2019-05-18T14:02:24.906Z,21.90
2019-05-18T14:04:51.995Z,21.90
2019-05-18T14:07:19.057Z,21.90
2019-05-18T14:09:46.402Z,21.90
2019-05-18T14:12:13.460Z,21.90
2019-05-18T14:14:40.571Z,21.90
2019-05-18T14:17:08.075Z,21.90
2019-05-18T14:19:35.208Z,21.90
2019-05-18T14:22:02.323Z,21.90
2019-05-18T14:24:29.466Z,21.80
2019-05-18T14:26:56.553Z,21.80
2019-05-18T14:29:23.637Z,21.80
2019-05-18T14:31:50.780Z,21.80
2019-05-18T14:34:17.876Z,21.80
2019-05-18T14:36:45.053Z,21.80
2019-05-18T14:39:12.148Z,21.80
2019-05-18T14:41:42.315Z,21.80
2019-05-18T14:44:08.235Z,21.80
2019-05-18T14:46:35.303Z,21.80
2019-05-18T14:49:02.425Z,21.70
2019-05-18T14:51:29.582Z,21.70
2019-05-18T14:53:56.682Z,21.70
2019-05-18T14:56:23.789Z,21.70
2019-05-18T14:58:50.915Z,21.60
2019-05-18T15:01:17.991Z,21.40
2019-05-18T15:03:45.205Z,21.30
2019-05-18T15:06:12.334Z,21.00
2019-05-18T15:08:39.475Z,20.80
2019-05-18T15:11:06.578Z,20.80
2019-05-18T15:13:33.832Z,21.10
2019-05-18T15:16:00.898Z,21.10
2019-05-18T15:18:28.015Z,21.10
2019-05-18T15:20:55.374Z,21.10
2019-05-18T15:23:22.443Z,21.00
2019-05-18T15:25:51.183Z,21.10
2019-05-18T15:28:18.307Z,21.10
2019-05-18T15:30:45.611Z,21.10
2019-05-18T15:33:12.709Z,21.10
2019-05-18T15:35:39.797Z,21.10
2019-05-18T15:38:06.890Z,20.90
2019-05-18T15:40:33.977Z,20.90
2019-05-18T15:43:01.307Z,20.90
2019-05-18T15:45:28.410Z,20.90
2019-05-18T15:47:55.504Z,20.80
2019-05-18T15:50:23.613Z,20.80
2019-05-18T15:52:50.872Z,20.80
2019-05-18T15:55:17.967Z,20.80
2019-05-18T15:57:45.035Z,20.80
2019-05-18T16:00:12.254Z,20.80
2019-05-18T16:02:39.409Z,20.70
2019-05-18T16:05:06.488Z,20.60
2019-05-18T16:07:33.614Z,20.50
2019-05-18T16:10:00.725Z,20.60
2019-05-18T16:12:27.805Z,20.70
2019-05-18T16:14:54.893Z,20.80
2019-05-18T16:17:22.351Z,20.80
2019-05-18T16:19:49.479Z,20.80
2019-05-18T16:22:16.715Z,20.80
2019-05-18T16:24:43.803Z,20.80
2019-05-18T16:27:10.918Z,20.80
2019-05-18T16:29:37.977Z,20.80
2019-05-18T16:32:05.314Z,20.80
2019-05-18T16:34:32.390Z,20.80
2019-05-18T16:37:00.856Z,20.70
2019-05-18T16:39:28.219Z,20.70
2019-05-18T16:41:55.518Z,20.70
2019-05-18T16:44:22.580Z,20.70
2019-05-18T16:46:49.675Z,20.90
2019-05-18T16:49:16.736Z,21.00
2019-05-18T16:51:43.915Z,21.10
2019-05-18T16:54:11.032Z,21.20
2019-05-18T16:56:38.113Z,21.30
2019-05-18T16:59:05.213Z,21.30
2019-05-18T17:01:32.278Z,21.30
2019-05-18T17:03:59.548Z,21.40
2019-05-18T17:06:26.611Z,21.40
2019-05-18T17:08:53.759Z,21.40
2019-05-18T17:11:20.900Z,21.40
2019-05-18T17:13:47.993Z,21.40
2019-05-18T17:16:15.061Z,21.40
2019-05-18T17:18:42.128Z,21.40
2019-05-18T17:21:09.268Z,21.40
2019-05-18T17:23:36.378Z,21.50
2019-05-18T17:26:03.477Z,21.40
2019-05-18T17:28:30.745Z,21.50
2019-05-18T17:30:57.915Z,21.50
2019-05-18T17:33:25.232Z,21.50
2019-05-18T17:36:00.338Z,21.40
2019-05-18T17:38:21.322Z,21.40
2019-05-18T17:40:48.520Z,21.40
2019-05-18T17:43:15.652Z,21.50
2019-05-18T17:45:42.874Z,21.50
2019-05-18T17:48:10.033Z,21.40
2019-05-18T17:50:37.188Z,21.50
2019-05-18T17:53:04.274Z,21.40
2019-05-18T17:55:31.425Z,21.40
2019-05-18T17:57:58.604Z,21.40
2019-05-18T18:00:26.006Z,21.40
2019-05-18T18:02:53.201Z,21.40
2019-05-18T18:05:20.331Z,21.40
2019-05-18T18:07:47.589Z,21.40
2019-05-18T18:10:14.757Z,21.40
2019-05-18T18:12:42.816Z,21.40
2019-05-18T18:15:10.013Z,21.40
2019-05-18T18:17:37.261Z,21.40
2019-05-18T18:20:04.374Z,21.40
2019-05-18T18:22:31.560Z,21.40
2019-05-18T18:24:58.766Z,21.40
2019-05-18T18:27:29.282Z,21.40
2019-05-18T18:29:54.878Z,21.40
2019-05-18T18:32:22.737Z,21.40
2019-05-18T18:34:49.849Z,21.40
2019-05-18T18:37:18.964Z,21.40
2019-05-18T18:39:45.836Z,21.40
2019-05-18T18:42:12.953Z,21.40
2019-05-18T18:44:40.170Z,21.40
2019-05-18T18:47:07.364Z,21.40
2019-05-18T18:49:34.652Z,21.40
2019-05-18T18:52:01.915Z,21.40
2019-05-18T18:54:29.157Z,21.40
2019-05-18T18:56:56.304Z,21.40
2019-05-18T18:59:23.517Z,21.40
2019-05-18T19:01:50.915Z,21.40
2019-05-18T19:04:18.136Z,21.40
2019-05-18T19:06:45.406Z,21.40
2019-05-18T19:09:12.570Z,21.40
2019-05-18T19:11:39.736Z,21.40
2019-05-18T19:14:07.091Z,21.40
2019-05-18T19:16:34.289Z,21.40
2019-05-18T19:19:01.476Z,21.40
2019-05-18T19:21:28.944Z,21.40
2019-05-18T19:23:56.055Z,21.40
2019-05-18T19:26:23.253Z,21.40
2019-05-18T19:28:50.444Z,21.40
2019-05-18T19:31:17.596Z,21.40
2019-05-18T19:33:44.665Z,21.50
2019-05-18T19:36:11.831Z,21.50
2019-05-18T19:38:38.976Z,21.50
2019-05-18T19:41:06.315Z,21.50
2019-05-18T19:43:33.439Z,21.50
2019-05-18T19:46:00.552Z,21.50
2019-05-18T19:48:27.648Z,21.50
2019-05-18T19:50:54.787Z,21.60
2019-05-18T19:53:21.901Z,21.50
2019-05-18T19:55:49.070Z,21.60
2019-05-18T19:58:16.193Z,21.60
2019-05-18T20:00:43.260Z,21.60
2019-05-18T20:03:10.448Z,21.60
2019-05-18T20:05:37.736Z,21.60
2019-05-18T20:08:05.888Z,21.50
2019-05-18T20:13:25.252Z,21.60
2019-05-18T20:15:52.316Z,21.50
2019-05-18T20:18:19.419Z,21.50
2019-05-18T20:20:46.817Z,21.50
2019-05-18T20:23:13.885Z,21.50
2019-05-18T20:25:40.964Z,21.60
2019-05-18T20:28:08.049Z,21.60
2019-05-18T20:30:35.202Z,21.70
2019-05-18T20:33:02.287Z,21.70
2019-05-18T20:35:29.533Z,21.70
2019-05-18T20:37:56.699Z,21.70
2019-05-18T20:40:24.051Z,21.70
2019-05-18T20:42:51.125Z,21.70
2019-05-18T20:45:18.402Z,21.70
2019-05-18T20:47:45.597Z,21.70
2019-05-18T20:50:12.857Z,21.80
2019-05-18T20:52:40.151Z,21.80
2019-05-18T20:55:07.292Z,21.80
2019-05-18T20:57:34.382Z,21.80
2019-05-18T21:00:01.509Z,21.80
2019-05-18T21:02:28.729Z,21.80
2019-05-18T21:04:55.931Z,21.80
2019-05-18T21:07:23.112Z,21.80
2019-05-18T21:09:50.207Z,21.80
2019-05-18T21:12:17.321Z,21.80
2019-05-18T21:14:44.416Z,21.80
2019-05-18T21:17:12.259Z,21.80
2019-05-18T21:19:39.384Z,21.80
2019-05-18T21:22:06.591Z,21.70
2019-05-18T21:24:33.696Z,21.70
2019-05-18T21:27:00.809Z,21.80
2019-05-18T21:29:27.943Z,21.70
2019-05-18T21:31:55.091Z,21.70
2019-05-18T21:34:22.153Z,21.70
2019-05-18T21:36:49.275Z,21.70
2019-05-18T21:39:16.413Z,21.70
2019-05-18T21:41:43.721Z,21.70
2019-05-18T21:44:10.804Z,21.70
2019-05-18T21:46:39.190Z,21.70
2019-05-18T21:49:06.342Z,21.70
2019-05-18T21:51:33.615Z,21.70
2019-05-18T21:54:00.971Z,21.70
2019-05-18T21:56:28.143Z,21.70
2019-05-18T21:59:09.035Z,21.70
2019-05-18T22:01:24.143Z,21.70
2019-05-18T22:03:51.199Z,21.70
2019-05-18T22:06:18.414Z,21.60
2019-05-18T22:08:45.516Z,21.60
2019-05-18T22:11:12.585Z,21.60
2019-05-18T22:13:39.684Z,21.60
2019-05-18T22:16:06.789Z,21.60
2019-05-18T22:18:33.857Z,21.60
2019-05-18T22:21:01.147Z,21.60
2019-05-18T22:23:28.206Z,21.60
2019-05-18T22:25:57.195Z,21.60
2019-05-18T22:28:24.071Z,21.60
2019-05-18T22:30:51.371Z,21.60
2019-05-18T22:33:18.430Z,21.50
2019-05-18T22:35:45.532Z,21.50
2019-05-18T22:38:12.594Z,21.50
2019-05-18T22:40:39.769Z,21.50
2019-05-18T22:43:06.834Z,21.50
2019-05-18T22:45:33.920Z,21.50
2019-05-18T22:48:01.016Z,21.50
2019-05-18T22:50:28.096Z,21.50
2019-05-18T22:52:55.419Z,21.50
2019-05-18T22:55:22.506Z,21.50
2019-05-18T22:57:49.715Z,21.50
2019-05-18T23:00:16.785Z,21.50
2019-05-18T23:02:44.015Z,21.50
2019-05-18T23:05:11.080Z,21.50
2019-05-18T23:07:38.177Z,21.50
2019-05-18T23:10:05.251Z,21.50
2019-05-18T23:12:32.427Z,21.50
2019-05-18T23:14:59.476Z,21.50
2019-05-18T23:17:26.646Z,21.50
2019-05-18T23:19:53.762Z,21.50
2019-05-18T23:22:21.017Z,21.50
2019-05-18T23:24:48.117Z,21.50
2019-05-18T23:27:15.179Z,21.50
2019-05-18T23:29:42.277Z,21.50
2019-05-18T23:32:09.703Z,21.50
2019-05-18T23:34:36.757Z,21.50
2019-05-18T23:37:03.851Z,21.50
2019-05-18T23:39:31.016Z,21.50
2019-05-18T23:41:58.079Z,21.50
2019-05-18T23:44:25.171Z,21.50
2019-05-18T23:46:52.251Z,21.50
2019-05-18T23:49:19.319Z,21.50
2019-05-18T23:51:46.603Z,21.50
2019-05-18T23:54:13.675Z,21.50
2019-05-18T23:56:40.770Z,21.50
2019-05-18T23:59:07.843Z,21.40
